Clear Creek Springs, Kentucky
Current Conditions -  °F | °C
As of 11:55 PM on Friday 28 Nov 2014 (Local Time) from KI35 Reporting Station
Clear Clear  
Wind Chill: 29°   Ceiling: Unl
Heat Index: 34°   Visibility: 10mi
Dew Point: 18°   Wind: 6mph
Humidity: 52%   Direction: 90°E
Pressure: 30.17"   Gusts: NA
Location:  36.7417°N, 83.6911°W
Report Text: KI35 290455Z AUTO 09005KT 10SM CLR 01/M08 A3017 RMK AO1
Loading
Personal Weather Stations






























Interactive Weather Map New forecast layout! Learn more

10-Day Weather Forecast

Advertisements
Track Severe Weather on mobile